Townshend, VT (05353)

1:01 PM EST on February 14, 2016 (GMT -0500)
Harmonyville | | Change Station
CLOSE
Current Station
Personal Weather Station
Location: Townshend, VT
Elevation: 463 ft
Nearby Weather Stations

Elev 463 ft 43.03 °N, 72.66 °W | Updated 14 minutes ago

Clear
Clear
5.9 °F
Feels Like 6 °F
N
2.2
Wind Variable Wind from NNE

Today
High -- | Low -- °F
--% Chance of Precip.
Yesterday
High -- | Low -- °F
Precip. -- in
Pressure 30.44 in
Visibility 10.0 miles
Clouds Clear
Windchill 6 °F
Dew Point -16 °F
Humidity 34%
Rainfall 0.00 in
Snow Depth Not available.
6:50 AM 5:19 PM
Waxing Crescent, 44% visible
METAR KVSF 141754Z AUTO 28013G22KT 10SM CLR M18/M28 A3038 RMK AO2 SLP307 T11781283 11178 21261 58005
Pressure 30.44 in
Visibility 10.0 miles
Clouds Clear
Windchill 6 °F
Dew Point -16 °F
Humidity 34%
Rainfall 0.00 in
Snow Depth Not available.
6:50 AM 5:19 PM
Waxing Crescent, 44% visible
METAR KVSF 141754Z AUTO 28013G22KT 10SM CLR M18/M28 A3038 RMK AO2 SLP307 T11781283 11178 21261 58005

10-Day Weather Forecast

Almanac

Astronomy

Feb. 14, 2016 Rise Set
Actual Time
Civil Twilight
Nautical Twilight
Astronomical Twilight
Moon
Length of Visible Light
Length of Day
Tomorrow will be .
, % of the Moon is Illuminated

Today's Extremes

State Highs State Lows

Community

WunderPhotos

Upload Photos

1,892,866 photos uploaded!

WunderBlog® & News

Nearby

Air Quality

  Air Quality AQ Index Pollutant
Not available.

Snow Depth

Station Depth Elevation

Earthquake Activity

City Distance Mag. Time & Date
Minimum magnitude displayed is 2.5.

Coastal Water Temperatures

Place Temperature

Stations

Nearby Weather Stations

Station Location Temp. Windchill Dew Point Humidity Wind Precip. Elev Updated Type
                   

Watches & Warnings

There are currently no watches in effect.